Observation data for Abernathy on 02/22/2019      Previous  Date  Next       Current Mesonet Observations  Soil Data  Daily Summary Page  Observations in Plain Language
KARS 220600Z 12013KT 03/M04 A2987 RMK A01 T00301040  RH  061%=      5-min Rain = 0
KARS 220605Z 13013KT 03/M04 A2987 RMK A01 T00291039  RH  061%=      5-min Rain = 0
KARS 220610Z 13012KT 03/M04 A2988 RMK A01 T00281038  RH  062%=      5-min Rain = 0
KARS 220615Z 13011G16KT 03/M04 A2988 RMK A01 T00261038  RH  063%=      5-min Rain = 0
KARS 220620Z 13011KT 03/M04 A2988 RMK A01 T00251038  RH  063%=      5-min Rain = 0
KARS 220625Z 13011KT 02/M04 A2988 RMK A01 T00231038  RH  064%=      5-min Rain = 0
KARS 220630Z 13011KT 02/M04 A2988 RMK A01 T00231038  RH  065%=      5-min Rain = 0
KARS 220635Z 13010KT 02/M04 A2988 RMK A01 T00231037  RH  065%=      5-min Rain = 0
KARS 220640Z 13011KT 02/M04 A2988 RMK A01 T00221037  RH  066%=      5-min Rain = 0
KARS 220645Z 13011KT 02/M04 A2988 RMK A01 T00221035  RH  066%=      5-min Rain = 0
KARS 220650Z 13011KT 02/M03 A2988 RMK A01 T00221034  RH  067%=      5-min Rain = 0
KARS 220655Z 13011KT 02/M03 A2988 RMK A01 T00211034  RH  067%=      5-min Rain = 0
KARS 220700Z 13010KT 02/M03 A2988 RMK A01 T00201034  RH  068%=      5-min Rain = 0
KARS 220705Z 13010KT 02/M03 A2988 RMK A01 T00191034  RH  068%=      5-min Rain = 0
KARS 220710Z 13011KT 02/M03 A2988 RMK A01 T00181033  RH  069%=      5-min Rain = 0
KARS 220715Z 13011KT 02/M03 A2988 RMK A01 T00181032  RH  070%=      5-min Rain = 0
KARS 220720Z 13011KT 02/M03 A2988 RMK A01 T00171031  RH  071%=      5-min Rain = 0
KARS 220725Z 13011KT 02/M03 A2988 RMK A01 T00171031  RH  071%=      5-min Rain = 0
KARS 220730Z 13011KT 02/M03 A2988 RMK A01 T00171029  RH  072%=      5-min Rain = 0
KARS 220735Z 13010KT 02/M03 A2988 RMK A01 T00161029  RH  073%=      5-min Rain = 0
KARS 220740Z 11010KT 02/M03 A2988 RMK A01 T00151028  RH  074%=      5-min Rain = 0
KARS 220745Z 11009KT 01/M03 A2988 RMK A01 T00141028  RH  074%=      5-min Rain = 0
KARS 220750Z 12009KT 01/M03 A2988 RMK A01 T00131027  RH  075%=      5-min Rain = 0
KARS 220755Z 12009KT 01/M03 A2989 RMK A01 T00131026  RH  076%=      5-min Rain = 0
KARS 220800Z 11008KT 01/M03 A2989 RMK A01 T00131026  RH  076%=      5-min Rain = 0
KARS 220805Z 11008KT 01/M03 A299 RMK A01 T00111026  RH  077%=      5-min Rain = 0
KARS 220810Z 11007KT 01/M03 A299 RMK A01 T00101026  RH  077%=      5-min Rain = 0
KARS 220815Z 12006KT 01/M03 A299 RMK A01 T00091026  RH  078%=      5-min Rain = 0
KARS 220820Z 12008KT 01/M02 A299 RMK A01 T00101024  RH  079%=      5-min Rain = 0
KARS 220825Z 12007KT 01/M02 A299 RMK A01 T00101023  RH  079%=      5-min Rain = 0
KARS 220830Z 12007KT 01/M02 A299 RMK A01 T00091023  RH  080%=      5-min Rain = 0
KARS 220835Z 13006KT 01/M02 A2991 RMK A01 T00071024  RH  080%=      5-min Rain = 0
KARS 220840Z 13006KT 01/M03 A2991 RMK A01 T00061025  RH  081%=      5-min Rain = 0
KARS 220845Z 12007KT 01/M02 A299 RMK A01 T00051024  RH  082%=      5-min Rain = 0
KARS 220850Z 12008KT 01/M02 A299 RMK A01 T00051023  RH  082%=      5-min Rain = 0
KARS 220855Z 12008KT 01/M02 A299 RMK A01 T00051022  RH  083%=      5-min Rain = 0
KARS 220900Z 12007KT 01/M02 A299 RMK A01 T00061021  RH  083%=      5-min Rain = 0
KARS 220905Z 11005KT 00/M02 A299 RMK A01 T00031024  RH  083%=      5-min Rain = 0
KARS 220910Z 10004KT 00/03 A299 RMK A01 T00-00-27  RH  083%=      5-min Rain = 0
KARS 220915Z 08003KT M00/M03 A299 RMK A01 T10041031  RH  083%=      5-min Rain = 0
KARS 220920Z 05003KT M01/M04 A2991 RMK A01 T10091036  RH  082%=      5-min Rain = 0
KARS 220925Z 05003KT M01/M04 A2991 RMK A01 T10121035  RH  085%=      5-min Rain = 0
KARS 220930Z 07004KT M01/M03 A2991 RMK A01 T10101032  RH  086%=      5-min Rain = 0
KARS 220935Z 06004KT M01/M03 A2991 RMK A01 T10111033  RH  085%=      5-min Rain = 0
KARS 220940Z 06005KT M01/M03 A299 RMK A01 T10131034  RH  086%=      5-min Rain = 0
KARS 220945Z 05006KT M02/M04 A299 RMK A01 T10171038  RH  086%=      5-min Rain = 0
KARS 220950Z 05006KT M02/M04 A299 RMK A01 T10191038  RH  087%=      5-min Rain = 0
KARS 220955Z 04006KT M02/M04 A299 RMK A01 T10171036  RH  087%=      5-min Rain = 0
KARS 221000Z 05005KT M02/M04 A299 RMK A01 T10171036  RH  088%=      5-min Rain = 0
KARS 221005Z 05005KT M02/M04 A299 RMK A01 T10171035  RH  088%=      5-min Rain = 0
KARS 221010Z 05004KT M02/M04 A299 RMK A01 T10171035  RH  088%=      5-min Rain = 0
KARS 221015Z 04004KT M02/M04 A299 RMK A01 T10171035  RH  088%=      5-min Rain = 0
KARS 221020Z 04005KT M02/M03 A299 RMK A01 T10161034  RH  088%=      5-min Rain = 0
KARS 221025Z 05006KT M02/M03 A299 RMK A01 T10151032  RH  089%=      5-min Rain = 0
KARS 221030Z 06006KT M02/M04 A299 RMK A01 T10171035  RH  088%=      5-min Rain = 0
KARS 221035Z 07008KT M01/M03 A299 RMK A01 T10131029  RH  090%=      5-min Rain = 0
KARS 221040Z 07008KT M01/M02 A2989 RMK A01 T10061019  RH  092%=      5-min Rain = 0
KARS 221045Z 07008KT M00/M01 A299 RMK A01 T10021013  RH  093%=      5-min Rain = 0
KARS 221050Z 07008KT 00/01 A299 RMK A01 T00-00-10  RH  094%=      5-min Rain = 0
KARS 221055Z 07008KT 00/M01 A299 RMK A01 T00021007  RH  094%=      5-min Rain = 0
KARS 221100Z 08009KT 00/M01 A299 RMK A01 T00021007  RH  095%=      5-min Rain = 0
KARS 221105Z 08009KT 00/M01 A299 RMK A01 T00021007  RH  095%=      5-min Rain = 0
KARS 221110Z 08010KT 00/M01 A299 RMK A01 T00021006  RH  095%=      5-min Rain = 0
KARS 221115Z 08009KT 00/M01 A299 RMK A01 T00031005  RH  096%=      5-min Rain = 0
KARS 221120Z 08009KT 00/M01 A299 RMK A01 T00031005  RH  096%=      5-min Rain = 0
KARS 221125Z 08010KT 00/M00 A2989 RMK A01 T00031004  RH  096%=      5-min Rain = 0
KARS 221130Z 08009KT 01/M00 A299 RMK A01 T00051003  RH  096%=      5-min Rain = 0
KARS 221135Z 08008KT 01/M00 A299 RMK A01 T00051002  RH  096%=      5-min Rain = 0
KARS 221140Z 08008KT 01/00 A299 RMK A01 T00070000  RH  096%=      5-min Rain = 0
KARS 221145Z 09009KT 01/00 A299 RMK A01 T00080002  RH  096%=      5-min Rain = 0
KARS 221150Z 10010KT 01/00 A299 RMK A01 T00090003  RH  096%=      5-min Rain = 0
KARS 221155Z 10010KT 01/00 A299 RMK A01 T00100003  RH  096%=      5-min Rain = 0
KARS 221200Z 10010KT 01/00 A299 RMK A01 T00100003  RH  096%=      5-min Rain = 0
KARS 221205Z 10007KT 01/00 A299 RMK A01 T00110004  RH  096%=      5-min Rain = 0
KARS 221210Z 10008KT 01/00 A2991 RMK A01 T00100004  RH  096%=      5-min Rain = 0
KARS 221215Z 12009KT 01/01 A2991 RMK A01 T00120006  RH  097%=      5-min Rain = 0
KARS 221220Z 12010KT 01/01 A2991 RMK A01 T00140007  RH  097%=      5-min Rain = 0
KARS 221225Z 11010KT 01/01 A2991 RMK A01 T00130007  RH  097%=      5-min Rain = 0
KARS 221230Z 12012KT 02/01 A2991 RMK A01 T00150008  RH  097%=      5-min Rain = 0
KARS 221235Z 12012KT 02/01 A2991 RMK A01 T00150009  RH  097%=      5-min Rain = 0
KARS 221240Z 13012KT 02/01 A2991 RMK A01 T00160009  RH  097%=      5-min Rain = 0
KARS 221245Z 13013KT 02/01 A2991 RMK A01 T00170010  RH  097%=      5-min Rain = 0
KARS 221250Z 13012G17KT 02/01 A2991 RMK A01 T00180012  RH  097%=      5-min Rain = 0
KARS 221255Z 13012KT 02/01 A2991 RMK A01 T00200014  RH  097%=      5-min Rain = 0
KARS 221300Z 12011KT 02/02 A2991 RMK A01 T00220015  RH  097%=      5-min Rain = 0
KARS 221305Z 12012KT 02/02 A2991 RMK A01 T00230017  RH  097%=      5-min Rain = 0
KARS 221310Z 12012KT 03/02 A2991 RMK A01 T00250018  RH  097%=      5-min Rain = 0
KARS 221315Z 12011KT 03/02 A2991 RMK A01 T00260019  RH  097%=      5-min Rain = 0
KARS 221320Z 12009KT 03/02 A2992 RMK A01 T00260020  RH  097%=      5-min Rain = 0
KARS 221325Z 12009KT 03/02 A2992 RMK A01 T00270021  RH  097%=      5-min Rain = 0
KARS 221330Z 11009KT 03/02 A2992 RMK A01 T00280022  RH  097%=      5-min Rain = 0
KARS 221335Z 12009KT 03/02 A2993 RMK A01 T00290022  RH  097%=      5-min Rain = 0
KARS 221340Z 12008KT 03/02 A2993 RMK A01 T00290023  RH  097%=      5-min Rain = 0
KARS 221345Z 11009KT 03/02 A2993 RMK A01 T00290023  RH  097%=      5-min Rain = 0
KARS 221350Z 11008KT 03/02 A2993 RMK A01 T00290022  RH  097%=      5-min Rain = 0
KARS 221355Z 11009KT 03/02 A2993 RMK A01 T00270021  RH  097%=      5-min Rain = 0
KARS 221400Z 12008KT 03/02 A2993 RMK A01 T00270021  RH  097%=      5-min Rain = 0
KARS 221405Z 11008KT 03/02 A2993 RMK A01 T00270021  RH  097%=      5-min Rain = 0
KARS 221410Z 11009KT 03/02 A2993 RMK A01 T00270021  RH  097%=      5-min Rain = 0
KARS 221415Z 11009KT 03/02 A2994 RMK A01 T00280022  RH  097%=      5-min Rain = 0
KARS 221420Z 12010KT 03/02 A2994 RMK A01 T00280022  RH  097%=      5-min Rain = 0
KARS 221425Z 11008KT 03/02 A2994 RMK A01 T00280022  RH  097%=      5-min Rain = 0
KARS 221430Z 11009KT 03/02 A2994 RMK A01 T00290023  RH  097%=      5-min Rain = 0
KARS 221435Z 11010KT 03/02 A2994 RMK A01 T00290023  RH  097%=      5-min Rain = 0
KARS 221440Z 11009KT 03/02 A2994 RMK A01 T00290023  RH  097%=      5-min Rain = 0
KARS 221445Z 11011KT 03/02 A2995 RMK A01 T00270021  RH  097%=      5-min Rain = 0
KARS 221450Z 12012KT 03/02 A2995 RMK A01 T00270020  RH  097%=      5-min Rain = 0
KARS 221455Z 12011KT 03/02 A2995 RMK A01 T00270020  RH  097%=      5-min Rain = 0
KARS 221500Z 11011KT 03/02 A2995 RMK A01 T00270020  RH  097%=      5-min Rain = 0
KARS 221505Z 11011KT 03/02 A2995 RMK A01 T00280020  RH  097%=      5-min Rain = 0
KARS 221510Z 11010KT 03/02 A2995 RMK A01 T00280020  RH  096%=      5-min Rain = 0
KARS 221515Z 11010KT 03/02 A2996 RMK A01 T00290021  RH  096%=      5-min Rain = 0
KARS 221520Z 12010KT 03/02 A2996 RMK A01 T00290021  RH  096%=      5-min Rain = 0
KARS 221525Z 12009KT 03/02 A2996 RMK A01 T00300022  RH  096%=      5-min Rain = 0
KARS 221530Z 12009KT 03/02 A2996 RMK A01 T00310023  RH  096%=      5-min Rain = 0
KARS 221535Z 12009KT 03/03 A2996 RMK A01 T00330025  RH  096%=      5-min Rain = 0
KARS 221540Z 13010KT 03/03 A2996 RMK A01 T00340025  RH  095%=      5-min Rain = 0
KARS 221545Z 13009KT 04/03 A2997 RMK A01 T00350026  RH  095%=      5-min Rain = 0
KARS 221550Z 13008KT 04/03 A2997 RMK A01 T00360026  RH  095%=      5-min Rain = 0
KARS 221555Z 13009KT 04/03 A2997 RMK A01 T00360026  RH  095%=      5-min Rain = 0
KARS 221600Z 14008KT 04/03 A2997 RMK A01 T00360026  RH  095%=      5-min Rain = 0
KARS 221605Z 14008KT 04/03 A2997 RMK A01 T00370027  RH  095%=      5-min Rain = 0
KARS 221610Z 14008KT 04/03 A2997 RMK A01 T00390028  RH  095%=      5-min Rain = 0
KARS 221615Z 14008KT 04/03 A2997 RMK A01 T00400029  RH  094%=      5-min Rain = 0
KARS 221620Z 15008KT 04/03 A2997 RMK A01 T00410029  RH  094%=      5-min Rain = 0
KARS 221625Z 14008KT 04/03 A2997 RMK A01 T00430031  RH  094%=      5-min Rain = 0
KARS 221630Z 14009KT 04/03 A2996 RMK A01 T00430030  RH  093%=      5-min Rain = 0
KARS 221635Z 14009KT 05/03 A2996 RMK A01 T00470032  RH  092%=      5-min Rain = 0
KARS 221640Z 14009KT 05/03 A2996 RMK A01 T00470031  RH  091%=      5-min Rain = 0
KARS 221645Z 14008KT 05/03 A2996 RMK A01 T00480031  RH  091%=      5-min Rain = 0
KARS 221650Z 14008KT 05/03 A2996 RMK A01 T00480031  RH  090%=      5-min Rain = 0
KARS 221655Z 14008KT 05/03 A2996 RMK A01 T00490031  RH  090%=      5-min Rain = 0
KARS 221700Z 13008KT 05/03 A2996 RMK A01 T00490031  RH  090%=      5-min Rain = 0
KARS 221705Z 14007KT 05/03 A2996 RMK A01 T00510032  RH  089%=      5-min Rain = 0
KARS 221710Z 14008KT 05/03 A2995 RMK A01 T00520032  RH  088%=      5-min Rain = 0
KARS 221715Z 14008KT 05/03 A2995 RMK A01 T00530032  RH  088%=      5-min Rain = 0
KARS 221720Z 13007KT 05/03 A2995 RMK A01 T00530033  RH  088%=      5-min Rain = 0
KARS 221725Z 13006KT 05/03 A2995 RMK A01 T00540033  RH  088%=      5-min Rain = 0
KARS 221730Z 13007KT 06/04 A2995 RMK A01 T00570035  RH  087%=      5-min Rain = 0
KARS 221735Z 14006KT 06/04 A2995 RMK A01 T00590035  RH  087%=      5-min Rain = 0
KARS 221740Z 14007KT 06/04 A2995 RMK A01 T00630036  RH  084%=      5-min Rain = 0
KARS 221745Z 17006KT 06/04 A2995 RMK A01 T00640035  RH  083%=      5-min Rain = 0
KARS 221750Z 15007KT 07/04 A2995 RMK A01 T00660036  RH  083%=      5-min Rain = 0
KARS 221755Z 16006KT 07/04 A2995 RMK A01 T00680035  RH  081%=      5-min Rain = 0
KARS 221800Z 16007KT 07/04 A2994 RMK A01 T00690035  RH  081%=      5-min Rain = 0
KARS 221805Z 18007KT 07/03 A2994 RMK A01 T00690033  RH  079%=      5-min Rain = 0
KARS 221810Z 17007KT 07/03 A2994 RMK A01 T00710032  RH  078%=      5-min Rain = 0
KARS 221815Z 19007KT 07/03 A2994 RMK A01 T00710031  RH  077%=      5-min Rain = 0
KARS 221820Z 19007KT 07/03 A2993 RMK A01 T00720031  RH  077%=      5-min Rain = 0
KARS 221825Z 18006KT 07/03 A2993 RMK A01 T00730032  RH  077%=      5-min Rain = 0
KARS 221830Z 18007KT 08/03 A2992 RMK A01 T00750032  RH  076%=      5-min Rain = 0
KARS 221835Z 16006KT 08/03 A2992 RMK A01 T00790032  RH  073%=      5-min Rain = 0
KARS 221840Z 15006KT 08/03 A2992 RMK A01 T00790032  RH  074%=      5-min Rain = 0
KARS 221845Z 14005KT 08/03 A2991 RMK A01 T00780033  RH  074%=      5-min Rain = 0
KARS 221850Z 15006KT 08/03 A2991 RMK A01 T00790033  RH  074%=      5-min Rain = 0
KARS 221855Z 16004KT 08/04 A299 RMK A01 T00820036  RH  074%=      5-min Rain = 0
KARS 221900Z 16005KT 08/03 A299 RMK A01 T00840034  RH  072%=      5-min Rain = 0
KARS 221905Z 18007KT 09/03 A2989 RMK A01 T00870032  RH  070%=      5-min Rain = 0
KARS 221910Z 16007KT 09/03 A2989 RMK A01 T00880032  RH  069%=      5-min Rain = 0
KARS 221915Z 14006KT 10/04 A2989 RMK A01 T00960036  RH  067%=      5-min Rain = 0
KARS 221920Z 19005KT 10/03 A2989 RMK A01 T00970033  RH  065%=      5-min Rain = 0
KARS 221925Z 18004KT 09/03 A2988 RMK A01 T00910032  RH  067%=      5-min Rain = 0
KARS 221930Z 18008KT 10/03 A2988 RMK A01 T00980034  RH  065%=      5-min Rain = 0
KARS 221935Z 17006KT 10/03 A2988 RMK A01 T00990033  RH  065%=      5-min Rain = 0
KARS 221940Z 14003KT 10/04 A2987 RMK A01 T00980035  RH  066%=      5-min Rain = 0
KARS 221945Z 20005KT 10/03 A2987 RMK A01 T01000033  RH  064%=      5-min Rain = 0
KARS 221950Z 20004KT 10/03 A2986 RMK A01 T01010032  RH  063%=      5-min Rain = 0
KARS 221955Z 19005KT 10/03 A2986 RMK A01 T01020030  RH  062%=      5-min Rain = 0
KARS 222000Z 19003KT 11/03 A2986 RMK A01 T01050031  RH  061%=      5-min Rain = 0
KARS 222005Z 18004KT 11/03 A2985 RMK A01 T01070031  RH  060%=      5-min Rain = 0
KARS 222010Z 17004KT 11/03 A2985 RMK A01 T01100033  RH  060%=      5-min Rain = 0
KARS 222015Z 14005KT 11/03 A2985 RMK A01 T01100032  RH  060%=      5-min Rain = 0
KARS 222020Z 16006KT 11/03 A2985 RMK A01 T01130030  RH  057%=      5-min Rain = 0
KARS 222025Z 16005KT 11/03 A2984 RMK A01 T01130031  RH  058%=      5-min Rain = 0
KARS 222030Z 13004KT 12/03 A2984 RMK A01 T01150034  RH  058%=      5-min Rain = 0
KARS 222035Z 16005KT 12/03 A2984 RMK A01 T01190033  RH  057%=      5-min Rain = 0
KARS 222040Z 17004KT 12/03 A2983 RMK A01 T01210031  RH  055%=      5-min Rain = 0
KARS 222045Z 13006KT 12/03 A2983 RMK A01 T01210034  RH  056%=      5-min Rain = 0
KARS 222050Z 16008KT 13/03 A2983 RMK A01 T01270032  RH  053%=      5-min Rain = 0
KARS 222055Z 16007KT 12/03 A2983 RMK A01 T01220030  RH  054%=      5-min Rain = 0
KARS 222100Z 15006G11KT 12/03 A2983 RMK A01 T01240028  RH  053%=      5-min Rain = 0
KARS 222105Z 15008KT 13/03 A2983 RMK A01 T01250029  RH  053%=      5-min Rain = 0
KARS 222110Z 17007KT 12/03 A2983 RMK A01 T01240025  RH  052%=      5-min Rain = 0
KARS 222115Z 15008KT 13/03 A2982 RMK A01 T01270032  RH  053%=      5-min Rain = 0
KARS 222120Z 14009KT 13/03 A2982 RMK A01 T01280029  RH  052%=      5-min Rain = 0
KARS 222125Z 15009KT 13/03 A2982 RMK A01 T01270028  RH  052%=      5-min Rain = 0
KARS 222130Z 13010KT 13/03 A2982 RMK A01 T01280034  RH  054%=      5-min Rain = 0
KARS 222135Z 13010G16KT 13/03 A2982 RMK A01 T01290033  RH  053%=      5-min Rain = 0
KARS 222140Z 12010KT 13/03 A2982 RMK A01 T01300033  RH  053%=      5-min Rain = 0
KARS 222145Z 14010KT 13/03 A2982 RMK A01 T01310032  RH  052%=      5-min Rain = 0
KARS 222150Z 13011KT 13/03 A2981 RMK A01 T01330032  RH  051%=      5-min Rain = 0
KARS 222155Z 14010G16KT 13/03 A2981 RMK A01 T01320032  RH  051%=      5-min Rain = 0
KARS 222200Z 13010G15KT 13/04 A2981 RMK A01 T01340036  RH  052%=      5-min Rain = 0
KARS 222205Z 15011KT 13/04 A2981 RMK A01 T01330035  RH  053%=      5-min Rain = 0
KARS 222210Z 15011G16KT 13/03 A2981 RMK A01 T01340033  RH  051%=      5-min Rain = 0
KARS 222215Z 14012KT 13/03 A2981 RMK A01 T01320032  RH  052%=      5-min Rain = 0
KARS 222220Z 14013KT 13/04 A2981 RMK A01 T01320040  RH  055%=      5-min Rain = 0
KARS 222225Z 13015G21KT 13/04 A2981 RMK A01 T01290042  RH  057%=      5-min Rain = 0
KARS 222230Z 14016G22KT 12/04 A2981 RMK A01 T01230043  RH  059%=      5-min Rain = 0
KARS 222235Z 14016KT 12/04 A2981 RMK A01 T01190042  RH  060%=      5-min Rain = 0
KARS 222240Z 15016KT 12/04 A2981 RMK A01 T01170041  RH  061%=      5-min Rain = 0
KARS 222245Z 14015G20KT 11/04 A2981 RMK A01 T01140040  RH  062%=      5-min Rain = 0
KARS 222250Z 14016KT 11/04 A2981 RMK A01 T01110039  RH  062%=      5-min Rain = 0
KARS 222255Z 14015KT 11/04 A2981 RMK A01 T01080038  RH  063%=      5-min Rain = 0
KARS 222300Z 14015KT 11/04 A2981 RMK A01 T01050037  RH  064%=      5-min Rain = 0
KARS 222305Z 14015G20KT 10/04 A2981 RMK A01 T01010036  RH  065%=      5-min Rain = 0
KARS 222310Z 14014KT 10/04 A2981 RMK A01 T00960035  RH  067%=      5-min Rain = 0
KARS 222315Z 14014KT 09/03 A2981 RMK A01 T00940034  RH  067%=      5-min Rain = 0
KARS 222320Z 13015KT 09/03 A2981 RMK A01 T00930034  RH  068%=      5-min Rain = 0
KARS 222325Z 14014G19KT 09/03 A2981 RMK A01 T00910034  RH  069%=      5-min Rain = 0
KARS 222330Z 14014KT 09/04 A2981 RMK A01 T00900035  RH  070%=      5-min Rain = 0
KARS 222335Z 14014KT 09/04 A2981 RMK A01 T00890035  RH  070%=      5-min Rain = 0
KARS 222340Z 14014G19KT 09/03 A2981 RMK A01 T00850034  RH  072%=      5-min Rain = 0
KARS 222345Z 14013KT 09/03 A2982 RMK A01 T00850034  RH  072%=      5-min Rain = 0
KARS 222350Z 14012KT 08/03 A2982 RMK A01 T00830034  RH  073%=      5-min Rain = 0
KARS 222355Z 13012KT 08/03 A2982 RMK A01 T00820033  RH  072%=      5-min Rain = 0
KARS 230000Z 13011KT 08/03 A2982 RMK A01 T00800032  RH  073%=      5-min Rain = 0
KARS 230005Z 13011KT 08/03 A2981 RMK A01 T00780032  RH  074%=      5-min Rain = 0
KARS 230010Z 12011KT 08/03 A2981 RMK A01 T00760032  RH  075%=      5-min Rain = 0
KARS 230015Z 13009KT 08/03 A2981 RMK A01 T00750032  RH  075%=      5-min Rain = 0
KARS 230020Z 11010KT 07/03 A2981 RMK A01 T00740032  RH  076%=      5-min Rain = 0
KARS 230025Z 12010KT 07/03 A298 RMK A01 T00710030  RH  076%=      5-min Rain = 0
KARS 230030Z 11010KT 07/03 A298 RMK A01 T00690030  RH  077%=      5-min Rain = 0
KARS 230035Z 11011KT 07/03 A2979 RMK A01 T00670031  RH  079%=      5-min Rain = 0
KARS 230040Z 11010KT 06/03 A2979 RMK A01 T00640029  RH  080%=      5-min Rain = 0
KARS 230045Z 11010KT 06/03 A2979 RMK A01 T00620028  RH  080%=      5-min Rain = 0
KARS 230050Z 10009KT 06/03 A2979 RMK A01 T00600027  RH  081%=      5-min Rain = 0
KARS 230055Z 10009KT 06/03 A2978 RMK A01 T00580026  RH  082%=      5-min Rain = 0
KARS 230100Z 10009KT 06/03 A2979 RMK A01 T00560026  RH  082%=      5-min Rain = 0
KARS 230105Z 11010KT 06/03 A2979 RMK A01 T00550026  RH  083%=      5-min Rain = 0
KARS 230110Z 11011KT 05/03 A298 RMK A01 T00540027  RH  084%=      5-min Rain = 0
KARS 230115Z 12010KT 06/03 A298 RMK A01 T00560029  RH  084%=      5-min Rain = 0
KARS 230120Z 11012KT 06/03 A298 RMK A01 T00570031  RH  084%=      5-min Rain = 0
KARS 230125Z 11012KT 06/03 A298 RMK A01 T00590032  RH  084%=      5-min Rain = 0
KARS 230130Z 12013G18KT 06/03 A298 RMK A01 T00590033  RH  084%=      5-min Rain = 0
KARS 230135Z 12013KT 06/03 A298 RMK A01 T00600032  RH  084%=      5-min Rain = 0
KARS 230140Z 11013KT 06/03 A298 RMK A01 T00600032  RH  084%=      5-min Rain = 0
KARS 230145Z 10013KT 06/03 A2979 RMK A01 T00600032  RH  084%=      5-min Rain = 0
KARS 230150Z 10014KT 06/03 A2979 RMK A01 T00600033  RH  084%=      5-min Rain = 0
KARS 230155Z 10014G19KT 06/03 A2979 RMK A01 T00590032  RH  084%=      5-min Rain = 0
KARS 230200Z 09015KT 06/03 A2978 RMK A01 T00590032  RH  085%=      5-min Rain = 0
KARS 230205Z 10016KT 06/03 A2977 RMK A01 T00580032  RH  085%=      5-min Rain = 0
KARS 230210Z 10016KT 06/03 A2977 RMK A01 T00590033  RH  085%=      5-min Rain = 0
KARS 230215Z 10018G23KT 06/03 A2977 RMK A01 T00590034  RH  085%=      5-min Rain = 0
KARS 230220Z 10018G23KT 06/04 A2977 RMK A01 T00590035  RH  086%=      5-min Rain = 0
KARS 230225Z 11016G22KT 06/04 A2977 RMK A01 T00600036  RH  086%=      5-min Rain = 0
KARS 230230Z 10016KT 06/04 A2977 RMK A01 T00600037  RH  087%=      5-min Rain = 0
KARS 230235Z 10015G20KT 06/04 A2977 RMK A01 T00600039  RH  088%=      5-min Rain = 0
KARS 230240Z 12016G22KT 06/04 A2978 RMK A01 T00590042  RH  090%=      5-min Rain = 0
KARS 230245Z 11015G20KT 06/04 A2978 RMK A01 T00590044  RH  092%=      5-min Rain = 0
KARS 230250Z 11015G20KT 06/05 A2977 RMK A01 T00590045  RH  093%=      5-min Rain = 0
KARS 230255Z 11016G23KT 06/05 A2977 RMK A01 T00570045  RH  094%=      5-min Rain = 0
KARS 230300Z 11016KT 06/05 A2977 RMK A01 T00560045  RH  094%=      5-min Rain = 0
KARS 230305Z 10016KT 06/05 A2976 RMK A01 T00560045  RH  095%=      5-min Rain = 0
KARS 230310Z 10016KT 06/05 A2977 RMK A01 T00560046  RH  095%=      5-min Rain = 0
KARS 230315Z 10015G20KT 06/05 A2977 RMK A01 T00560046  RH  095%=      5-min Rain = 0
KARS 230320Z 09015KT 06/05 A2977 RMK A01 T00560046  RH  096%=      5-min Rain = 0
KARS 230325Z 10014KT 06/05 A2977 RMK A01 T00560047  RH  096%=      5-min Rain = 0
KARS 230330Z 10014KT 06/05 A2976 RMK A01 T00560047  RH  096%=      5-min Rain = 0
KARS 230335Z 10013G18KT 06/05 A2976 RMK A01 T00560047  RH  096%=      5-min Rain = 0
KARS 230340Z 10014G19KT 06/05 A2976 RMK A01 T00560048  RH  096%=      5-min Rain = 0
KARS 230345Z 10013KT 06/05 A2976 RMK A01 T00560048  RH  097%=      5-min Rain = 0
KARS 230350Z 10014KT 06/05 A2976 RMK A01 T00560048  RH  097%=      5-min Rain = 0
KARS 230355Z 10013KT 06/05 A2976 RMK A01 T00570049  RH  097%=      5-min Rain = 0
KARS 230400Z 11012KT 06/05 A2977 RMK A01 T00560049  RH  097%=      5-min Rain = 0
KARS 230405Z 10011KT 06/05 A2977 RMK A01 T00570049  RH  097%=      5-min Rain = 0
KARS 230410Z 10011KT 06/05 A2976 RMK A01 T00570049  RH  097%=      5-min Rain = 0
KARS 230415Z 10010KT 06/05 A2976 RMK A01 T00570050  RH  097%=      5-min Rain = 0
KARS 230420Z 10013KT 06/05 A2976 RMK A01 T00570050  RH  097%=      5-min Rain = 0
KARS 230425Z 10011KT 06/05 A2977 RMK A01 T00570050  RH  097%=      5-min Rain = 0
KARS 230430Z 10011KT 06/05 A2977 RMK A01 T00570050  RH  097%=      5-min Rain = 0
KARS 230435Z 10008G13KT 06/05 A2978 RMK A01 T00570050  RH  097%=      5-min Rain = 0
KARS 230440Z 09009KT 06/05 A2977 RMK A01 T00570050  RH  097%=      5-min Rain = 0
KARS 230445Z 10009KT 06/05 A2977 RMK A01 T00570050  RH  097%=      5-min Rain = 0
KARS 230450Z 10007KT 06/05 A2978 RMK A01 T00570050  RH  097%=      5-min Rain = 0
KARS 230455Z 08007KT 06/05 A2977 RMK A01 T00570049  RH  097%=      5-min Rain = 0
KARS 230500Z 09007KT 06/05 A2977 RMK A01 T00570050  RH  097%=      5-min Rain = 0
KARS 230505Z 08008KT 06/05 A2976 RMK A01 T00570049  RH  097%=      5-min Rain = 0
KARS 230510Z 11008KT 06/05 A2977 RMK A01 T00570049  RH  097%=      5-min Rain = 0
KARS 230515Z 11010KT 06/05 A2976 RMK A01 T00570050  RH  097%=      5-min Rain = 0
KARS 230520Z 10011KT 06/05 A2975 RMK A01 T00570050  RH  097%=      5-min Rain = 0
KARS 230525Z 11012KT 06/05 A2975 RMK A01 T00570050  RH  097%=      5-min Rain = 0
KARS 230530Z 10013KT 06/05 A2972 RMK A01 T00560049  RH  097%=      5-min Rain = 0
KARS 230535Z 10012KT 06/05 A2972 RMK A01 T00570049  RH  097%=      5-min Rain = 0
KARS 230540Z 11013G18KT 06/05 A2972 RMK A01 T00570050  RH  097%=      5-min Rain = 0
KARS 230545Z 10014KT 06/05 A2971 RMK A01 T00570050  RH  097%=      5-min Rain = 0
KARS 230550Z 10013KT 06/05 A297 RMK A01 T00560049  RH  097%=      5-min Rain = 0
KARS 230555Z 11013KT 06/05 A2971 RMK A01 T00570050  RH  097%=      5-min Rain = 0

Page generated in 0.0088 seconds.